sensor_id;sensor_type;location;lat;lon;timestamp;pressure;altitude;pressure_sealevel;temperature;humidity
18500;BME280;9379;52.134;11.576;2022-09-09T00:00:18;100341.97;;;17.86;100.00
18500;BME280;9379;52.134;11.576;2022-09-09T00:02:53;100355.69;;;17.76;100.00
18500;BME280;9379;52.134;11.576;2022-09-09T00:05:28;100361.66;;;17.71;100.00
18500;BME280;9379;52.134;11.576;2022-09-09T00:07:59;100334.47;;;17.52;100.00
18500;BME280;9379;52.134;11.576;2022-09-09T00:10:31;100353.34;;;17.88;100.00
18500;BME280;9379;52.134;11.576;2022-09-09T00:13:05;100359.75;;;17.87;100.00
18500;BME280;9379;52.134;11.576;2022-09-09T00:15:39;100353.25;;;17.96;100.00
18500;BME280;9379;52.134;11.576;2022-09-09T00:18:15;100361.66;;;18.29;99.74
18500;BME280;9379;52.134;11.576;2022-09-09T00:20:49;100365.38;;;18.06;100.00
18500;BME280;9379;52.134;11.576;2022-09-09T00:23:25;100354.28;;;18.16;98.84
18500;BME280;9379;52.134;11.576;2022-09-09T00:26:02;100366.78;;;18.24;98.31
18500;BME280;9379;52.134;11.576;2022-09-09T00:28:34;100362.50;;;18.08;97.94
18500;BME280;9379;52.134;11.576;2022-09-09T00:31:11;100364.91;;;18.03;98.02
18500;BME280;9379;52.134;11.576;2022-09-09T00:33:39;100362.53;;;18.29;96.56
18500;BME280;9379;52.134;11.576;2022-09-09T00:36:13;100364.28;;;18.22;97.02
18500;BME280;9379;52.134;11.576;2022-09-09T00:38:45;100361.72;;;18.14;96.88
18500;BME280;9379;52.134;11.576;2022-09-09T00:41:18;100349.56;;;18.40;96.11
18500;BME280;9379;52.134;11.576;2022-09-09T00:43:52;100322.19;;;17.93;97.73
18500;BME280;9379;52.134;11.576;2022-09-09T00:46:44;100342.84;;;17.93;97.92
18500;BME280;9379;52.134;11.576;2022-09-09T00:49:21;100338.16;;;18.16;97.52
18500;BME280;9379;52.134;11.576;2022-09-09T00:52:01;100346.59;;;18.13;97.30
18500;BME280;9379;52.134;11.576;2022-09-09T00:54:40;100343.53;;;18.16;98.28
18500;BME280;9379;52.134;11.576;2022-09-09T00:57:20;100348.16;;;18.22;97.61
18500;BME280;9379;52.134;11.576;2022-09-09T00:59:51;100347.00;;;18.31;96.58
18500;BME280;9379;52.134;11.576;2022-09-09T01:02:26;100338.94;;;18.31;97.00
18500;BME280;9379;52.134;11.576;2022-09-09T01:04:56;100351.63;;;18.37;97.65
18500;BME280;9379;52.134;11.576;2022-09-09T01:07:26;100342.06;;;18.14;96.87
18500;BME280;9379;52.134;11.576;2022-09-09T01:09:56;100354.28;;;17.95;97.83
18500;BME280;9379;52.134;11.576;2022-09-09T01:12:30;100350.38;;;17.83;98.50
18500;BME280;9379;52.134;11.576;2022-09-09T01:15:08;100353.59;;;17.71;98.45
18500;BME280;9379;52.134;11.576;2022-09-09T01:17:49;100344.19;;;17.67;98.65
18500;BME280;9379;52.134;11.576;2022-09-09T01:20:21;100339.94;;;17.73;98.17
18500;BME280;9379;52.134;11.576;2022-09-09T01:23:00;100347.69;;;17.83;98.62
18500;BME280;9379;52.134;11.576;2022-09-09T01:26:05;100342.94;;;17.99;98.00
18500;BME280;9379;52.134;11.576;2022-09-09T01:28:36;100339.97;;;18.30;96.56
18500;BME280;9379;52.134;11.576;2022-09-09T01:31:04;100353.53;;;18.22;96.95
18500;BME280;9379;52.134;11.576;2022-09-09T01:33:32;100343.59;;;18.01;96.91
18500;BME280;9379;52.134;11.576;2022-09-09T01:36:02;100346.22;;;18.16;96.83
18500;BME280;9379;52.134;11.576;2022-09-09T01:38:31;100342.84;;;17.93;97.85
18500;BME280;9379;52.134;11.576;2022-09-09T01:40:59;100334.44;;;17.96;97.18
18500;BME280;9379;52.134;11.576;2022-09-09T01:43:28;100348.41;;;18.06;96.34
18500;BME280;9379;52.134;11.576;2022-09-09T01:45:59;100339.13;;;17.94;97.55
18500;BME280;9379;52.134;11.576;2022-09-09T01:48:27;100353.06;;;17.83;97.44
18500;BME280;9379;52.134;11.576;2022-09-09T01:50:54;100334.94;;;17.55;96.81
18500;BME280;9379;52.134;11.576;2022-09-09T01:53:21;100357.94;;;17.72;97.05
18500;BME280;9379;52.134;11.576;2022-09-09T01:55:57;100356.53;;;17.76;97.03
18500;BME280;9379;52.134;11.576;2022-09-09T01:58:34;100337.53;;;17.78;96.85
18500;BME280;9379;52.134;11.576;2022-09-09T02:01:11;100348.38;;;17.85;96.65
18500;BME280;9379;52.134;11.576;2022-09-09T02:03:43;100355.75;;;17.83;96.45
18500;BME280;9379;52.134;11.576;2022-09-09T02:06:19;100355.38;;;18.00;95.90
18500;BME280;9379;52.134;11.576;2022-09-09T02:08:49;100357.63;;;17.82;95.85
18500;BME280;9379;52.134;11.576;2022-09-09T02:11:17;100339.47;;;17.84;96.18
18500;BME280;9379;52.134;11.576;2022-09-09T02:13:47;100347.59;;;17.91;95.94
18500;BME280;9379;52.134;11.576;2022-09-09T02:16:19;100355.03;;;17.89;95.80
18500;BME280;9379;52.134;11.576;2022-09-09T02:18:55;100327.75;;;17.92;95.29
18500;BME280;9379;52.134;11.576;2022-09-09T02:21:26;100326.13;;;17.61;96.83
18500;BME280;9379;52.134;11.576;2022-09-09T02:23:55;100345.53;;;17.93;95.00
18500;BME280;9379;52.134;11.576;2022-09-09T02:26:27;100337.53;;;17.63;96.11
18500;BME280;9379;52.134;11.576;2022-09-09T02:29:06;100337.63;;;17.55;96.18
18500;BME280;9379;52.134;11.576;2022-09-09T02:31:47;100355.59;;;17.84;95.76
18500;BME280;9379;52.134;11.576;2022-09-09T02:34:18;100340.69;;;17.37;97.27
18500;BME280;9379;52.134;11.576;2022-09-09T02:37:00;100318.16;;;17.53;96.19
18500;BME280;9379;52.134;11.576;2022-09-09T02:39:29;100356.16;;;17.79;95.35
18500;BME280;9379;52.134;11.576;2022-09-09T02:41:56;100353.66;;;17.63;95.92
18500;BME280;9379;52.134;11.576;2022-09-09T02:44:24;100343.44;;;17.59;96.28
18500;BME280;9379;52.134;11.576;2022-09-09T02:47:03;100318.91;;;17.32;96.09
18500;BME280;9379;52.134;11.576;2022-09-09T02:49:41;100325.94;;;17.33;96.35
18500;BME280;9379;52.134;11.576;2022-09-09T02:52:13;100350.91;;;17.71;95.70
18500;BME280;9379;52.134;11.576;2022-09-09T02:54:44;100345.00;;;17.97;95.09
18500;BME280;9379;52.134;11.576;2022-09-09T02:57:15;100335.59;;;17.72;94.83
18500;BME280;9379;52.134;11.576;2022-09-09T02:59:46;100316.13;;;17.55;94.88
18500;BME280;9379;52.134;11.576;2022-09-09T03:02:14;100332.53;;;17.45;95.66
18500;BME280;9379;52.134;11.576;2022-09-09T03:05:02;100349.69;;;17.30;96.81
18500;BME280;9379;52.134;11.576;2022-09-09T03:07:30;100325.03;;;17.11;97.16
18500;BME280;9379;52.134;11.576;2022-09-09T03:09:59;100325.50;;;17.30;97.59
18500;BME280;9379;52.134;11.576;2022-09-09T03:12:26;100353.94;;;17.54;96.47
18500;BME280;9379;52.134;11.576;2022-09-09T03:14:57;100349.25;;;17.92;95.61
18500;BME280;9379;52.134;11.576;2022-09-09T03:17:31;100311.84;;;17.75;95.02
18500;BME280;9379;52.134;11.576;2022-09-09T03:19:57;100340.31;;;17.70;94.92
18500;BME280;9379;52.134;11.576;2022-09-09T03:22:27;100355.13;;;17.66;96.06
18500;BME280;9379;52.134;11.576;2022-09-09T03:24:56;100358.75;;;17.43;97.12
18500;BME280;9379;52.134;11.576;2022-09-09T03:27:36;100362.81;;;17.25;98.36
18500;BME280;9379;52.134;11.576;2022-09-09T03:30:10;100336.31;;;17.07;98.10
18500;BME280;9379;52.134;11.576;2022-09-09T03:32:37;100333.25;;;17.10;97.99
18500;BME280;9379;52.134;11.576;2022-09-09T03:35:12;100323.19;;;17.41;96.18
18500;BME280;9379;52.134;11.576;2022-09-09T03:37:39;100361.72;;;17.63;96.15
18500;BME280;9379;52.134;11.576;2022-09-09T03:40:07;100315.19;;;17.48;95.56
18500;BME280;9379;52.134;11.576;2022-09-09T03:42:37;100332.91;;;17.42;96.29
18500;BME280;9379;52.134;11.576;2022-09-09T03:45:08;100318.47;;;17.29;96.14
18500;BME280;9379;52.134;11.576;2022-09-09T03:47:37;100332.63;;;17.52;96.88
18500;BME280;9379;52.134;11.576;2022-09-09T03:50:15;100318.00;;;17.40;96.57
18500;BME280;9379;52.134;11.576;2022-09-09T03:52:43;100326.88;;;17.40;96.33
18500;BME280;9379;52.134;11.576;2022-09-09T03:55:11;100355.88;;;17.60;95.93
18500;BME280;9379;52.134;11.576;2022-09-09T03:57:41;100321.50;;;17.40;96.09
18500;BME280;9379;52.134;11.576;2022-09-09T04:33:06;100309.66;;;17.20;96.99
18500;BME280;9379;52.134;11.576;2022-09-09T04:35:37;100343.91;;;17.47;95.92
18500;BME280;9379;52.134;11.576;2022-09-09T04:38:09;100328.47;;;17.20;96.40
18500;BME280;9379;52.134;11.576;2022-09-09T04:40:36;100341.69;;;16.92;98.95
18500;BME280;9379;52.134;11.576;2022-09-09T04:43:19;100350.06;;;17.27;98.14
18500;BME280;9379;52.134;11.576;2022-09-09T04:45:50;100323.91;;;17.35;96.69
18500;BME280;9379;52.134;11.576;2022-09-09T04:48:21;100333.91;;;17.56;95.86
18500;BME280;9379;52.134;11.576;2022-09-09T04:50:58;100323.25;;;17.33;96.40
18500;BME280;9379;52.134;11.576;2022-09-09T04:53:25;100333.09;;;17.26;96.56
18500;BME280;9379;52.134;11.576;2022-09-09T04:56:03;100345.03;;;17.24;97.24
18500;BME280;9379;52.134;11.576;2022-09-09T04:58:31;100338.00;;;17.08;97.41
18500;BME280;9379;52.134;11.576;2022-09-09T05:01:07;100358.44;;;17.68;96.58
18500;BME280;9379;52.134;11.576;2022-09-09T05:03:39;100365.72;;;17.38;96.42
18500;BME280;9379;52.134;11.576;2022-09-09T05:06:11;100343.63;;;16.98;98.12
18500;BME280;9379;52.134;11.576;2022-09-09T05:08:44;100339.13;;;17.13;98.02
18500;BME280;9379;52.134;11.576;2022-09-09T05:11:17;100330.41;;;17.26;97.40
18500;BME280;9379;52.134;11.576;2022-09-09T05:13:46;100350.03;;;17.56;95.75
18500;BME280;9379;52.134;11.576;2022-09-09T05:16:14;100353.59;;;17.93;95.26
18500;BME280;9379;52.134;11.576;2022-09-09T05:18:43;100338.66;;;18.05;94.88
18500;BME280;9379;52.134;11.576;2022-09-09T05:21:12;100356.13;;;18.30;93.84
18500;BME280;9379;52.134;11.576;2022-09-09T05:23:39;100345.03;;;18.19;94.66
18500;BME280;9379;52.134;11.576;2022-09-09T05:26:08;100374.13;;;18.73;92.14
18500;BME280;9379;52.134;11.576;2022-09-09T05:28:35;100388.09;;;18.83;92.72
18500;BME280;9379;52.134;11.576;2022-09-09T05:31:04;100350.81;;;18.86;91.56
18500;BME280;9379;52.134;11.576;2022-09-09T05:33:34;100386.72;;;18.93;93.58
18500;BME280;9379;52.134;11.576;2022-09-09T05:36:04;100358.38;;;18.98;92.12
18500;BME280;9379;52.134;11.576;2022-09-09T05:38:33;100382.84;;;19.31;91.02
18500;BME280;9379;52.134;11.576;2022-09-09T05:41:02;100371.22;;;18.74;94.56
18500;BME280;9379;52.134;11.576;2022-09-09T05:43:29;100379.94;;;18.55;95.11
18500;BME280;9379;52.134;11.576;2022-09-09T05:46:01;100363.31;;;18.51;97.31
18500;BME280;9379;52.134;11.576;2022-09-09T05:48:30;100359.41;;;18.69;96.66
18500;BME280;9379;52.134;11.576;2022-09-09T05:50:58;100386.09;;;18.91;95.30
18500;BME280;9379;52.134;11.576;2022-09-09T05:53:27;100382.47;;;19.06;94.27
18500;BME280;9379;52.134;11.576;2022-09-09T05:56:01;100372.66;;;18.70;96.07
18500;BME280;9379;52.134;11.576;2022-09-09T05:58:30;100361.66;;;18.65;96.98
18500;BME280;9379;52.134;11.576;2022-09-09T06:01:01;100367.06;;;18.72;97.10
18500;BME280;9379;52.134;11.576;2022-09-09T06:03:28;100390.53;;;18.78;97.78
18500;BME280;9379;52.134;11.576;2022-09-09T06:05:59;100389.28;;;18.59;97.61
18500;BME280;9379;52.134;11.576;2022-09-09T06:08:28;100370.97;;;18.48;97.84
18500;BME280;9379;52.134;11.576;2022-09-09T06:11:01;100385.69;;;18.67;97.50
18500;BME280;9379;52.134;11.576;2022-09-09T06:13:28;100377.19;;;18.48;96.32
18500;BME280;9379;52.134;11.576;2022-09-09T06:15:55;100385.88;;;18.65;97.36
18500;BME280;9379;52.134;11.576;2022-09-09T06:18:23;100387.63;;;18.58;97.95
18500;BME280;9379;52.134;11.576;2022-09-09T06:20:55;100386.66;;;18.44;97.02
18500;BME280;9379;52.134;11.576;2022-09-09T06:23:24;100364.44;;;18.35;96.67
18500;BME280;9379;52.134;11.576;2022-09-09T06:26:01;100381.72;;;18.48;95.36
18500;BME280;9379;52.134;11.576;2022-09-09T06:28:28;100380.13;;;18.75;95.20
18500;BME280;9379;52.134;11.576;2022-09-09T06:30:59;100371.72;;;18.84;95.34
18500;BME280;9379;52.134;11.576;2022-09-09T06:33:39;100388.78;;;18.49;96.28
18500;BME280;9379;52.134;11.576;2022-09-09T06:36:10;100365.69;;;18.61;96.10
18500;BME280;9379;52.134;11.576;2022-09-09T06:38:41;100405.38;;;18.95;95.43
18500;BME280;9379;52.134;11.576;2022-09-09T06:41:10;100378.09;;;18.77;95.37
18500;BME280;9379;52.134;11.576;2022-09-09T06:43:38;100375.72;;;19.16;93.90
18500;BME280;9379;52.134;11.576;2022-09-09T06:46:08;100396.75;;;18.78;95.04
18500;BME280;9379;52.134;11.576;2022-09-09T06:48:35;100373.13;;;19.02;96.44
18500;BME280;9379;52.134;11.576;2022-09-09T06:51:03;100370.97;;;18.90;95.48
18500;BME280;9379;52.134;11.576;2022-09-09T06:53:31;100370.22;;;19.03;94.73
18500;BME280;9379;52.134;11.576;2022-09-09T06:56:20;100404.09;;;19.12;96.18
18500;BME280;9379;52.134;11.576;2022-09-09T06:58:49;100388.47;;;18.80;96.29
18500;BME280;9379;52.134;11.576;2022-09-09T07:01:18;100382.03;;;19.02;95.06
18500;BME280;9379;52.134;11.576;2022-09-09T07:03:48;100370.03;;;19.05;95.15
18500;BME280;9379;52.134;11.576;2022-09-09T07:06:18;100406.50;;;19.07;95.21
18500;BME280;9379;52.134;11.576;2022-09-09T07:08:54;100402.09;;;19.56;93.96
18500;BME280;9379;52.134;11.576;2022-09-09T07:11:26;100400.91;;;19.58;92.76
18500;BME280;9379;52.134;11.576;2022-09-09T07:13:57;100376.88;;;19.07;95.75
18500;BME280;9379;52.134;11.576;2022-09-09T07:16:25;100367.09;;;19.28;95.12
18500;BME280;9379;52.134;11.576;2022-09-09T07:18:56;100358.66;;;19.44;94.60
18500;BME280;9379;52.134;11.576;2022-09-09T07:21:24;100370.59;;;19.56;94.29
18500;BME280;9379;52.134;11.576;2022-09-09T07:23:53;100384.75;;;19.65;92.65
18500;BME280;9379;52.134;11.576;2022-09-09T07:26:22;100374.19;;;19.07;95.72
18500;BME280;9379;52.134;11.576;2022-09-09T07:28:51;100400.16;;;19.15;96.06
18500;BME280;9379;52.134;11.576;2022-09-09T07:31:25;100395.09;;;19.61;94.55
18500;BME280;9379;52.134;11.576;2022-09-09T07:33:52;100396.06;;;19.53;95.83
18500;BME280;9379;52.134;11.576;2022-09-09T07:36:21;100374.78;;;19.65;94.69
18500;BME280;9379;52.134;11.576;2022-09-09T07:38:50;100399.63;;;20.02;93.46
18500;BME280;9379;52.134;11.576;2022-09-09T07:41:19;100364.88;;;19.72;93.65
18500;BME280;9379;52.134;11.576;2022-09-09T07:43:48;100382.94;;;19.78;94.37
18500;BME280;9379;52.134;11.576;2022-09-09T07:46:18;100408.59;;;20.09;93.65
18500;BME280;9379;52.134;11.576;2022-09-09T07:48:47;100377.47;;;19.59;94.92
18500;BME280;9379;52.134;11.576;2022-09-09T07:51:18;100378.00;;;19.89;93.98
18500;BME280;9379;52.134;11.576;2022-09-09T07:53:53;100382.19;;;19.98;94.34
18500;BME280;9379;52.134;11.576;2022-09-09T07:56:20;100378.00;;;19.89;93.17
18500;BME280;9379;52.134;11.576;2022-09-09T07:58:49;100380.84;;;19.74;92.52
18500;BME280;9379;52.134;11.576;2022-09-09T08:01:35;100418.34;;;20.03;92.80
18500;BME280;9379;52.134;11.576;2022-09-09T08:04:07;100379.91;;;20.01;93.19
18500;BME280;9379;52.134;11.576;2022-09-09T08:06:42;100392.31;;;19.89;94.21
18500;BME280;9379;52.134;11.576;2022-09-09T08:09:13;100390.28;;;19.98;93.35
18500;BME280;9379;52.134;11.576;2022-09-09T08:11:47;100399.44;;;20.03;92.95
18500;BME280;9379;52.134;11.576;2022-09-09T08:14:16;100391.13;;;19.98;92.64
18500;BME280;9379;52.134;11.576;2022-09-09T08:16:46;100409.94;;;19.85;92.87
18500;BME280;9379;52.134;11.576;2022-09-09T08:19:14;100416.13;;;19.79;92.57
18500;BME280;9379;52.134;11.576;2022-09-09T08:21:42;100407.75;;;20.08;92.20
18500;BME280;9379;52.134;11.576;2022-09-09T08:24:11;100405.84;;;20.50;90.00
18500;BME280;9379;52.134;11.576;2022-09-09T08:26:40;100424.50;;;20.45;89.88
18500;BME280;9379;52.134;11.576;2022-09-09T08:29:08;100398.59;;;20.64;91.14
18500;BME280;9379;52.134;11.576;2022-09-09T08:31:37;100418.47;;;20.43;90.56
18500;BME280;9379;52.134;11.576;2022-09-09T08:34:06;100412.50;;;20.54;90.26
18500;BME280;9379;52.134;11.576;2022-09-09T08:36:36;100416.88;;;20.95;91.18
18500;BME280;9379;52.134;11.576;2022-09-09T08:39:04;100412.06;;;20.57;89.88
18500;BME280;9379;52.134;11.576;2022-09-09T08:41:42;100423.09;;;20.69;88.63
18500;BME280;9379;52.134;11.576;2022-09-09T08:44:21;100415.38;;;20.59;89.50
18500;BME280;9379;52.134;11.576;2022-09-09T08:46:57;100414.16;;;20.62;87.50
18500;BME280;9379;52.134;11.576;2022-09-09T08:49:50;100424.16;;;20.88;86.85
18500;BME280;9379;52.134;11.576;2022-09-09T08:52:22;100425.63;;;20.97;86.42
18500;BME280;9379;52.134;11.576;2022-09-09T08:54:50;100426.03;;;21.27;87.00
18500;BME280;9379;52.134;11.576;2022-09-09T08:57:20;100440.59;;;21.19;88.11
18500;BME280;9379;52.134;11.576;2022-09-09T08:59:52;100428.91;;;21.52;86.43
18500;BME280;9379;52.134;11.576;2022-09-09T09:02:25;100439.34;;;20.89;88.27
18500;BME280;9379;52.134;11.576;2022-09-09T09:05:05;100427.91;;;21.26;86.97
18500;BME280;9379;52.134;11.576;2022-09-09T09:07:46;100424.13;;;21.67;85.16
18500;BME280;9379;52.134;11.576;2022-09-09T09:10:23;100439.56;;;21.34;85.10
18500;BME280;9379;52.134;11.576;2022-09-09T09:12:52;100442.03;;;21.48;84.84
18500;BME280;9379;52.134;11.576;2022-09-09T09:15:23;100433.72;;;21.23;85.62
18500;BME280;9379;52.134;11.576;2022-09-09T09:17:50;100408.56;;;21.30;85.28
18500;BME280;9379;52.134;11.576;2022-09-09T09:20:23;100408.34;;;21.05;84.43
18500;BME280;9379;52.134;11.576;2022-09-09T09:22:54;100426.03;;;21.20;84.69
18500;BME280;9379;52.134;11.576;2022-09-09T09:25:27;100421.25;;;20.96;83.77
18500;BME280;9379;52.134;11.576;2022-09-09T09:27:59;100416.25;;;20.93;82.79
18500;BME280;9379;52.134;11.576;2022-09-09T09:30:31;100438.09;;;20.98;83.52
18500;BME280;9379;52.134;11.576;2022-09-09T09:33:02;100411.91;;;20.92;84.39
18500;BME280;9379;52.134;11.576;2022-09-09T09:35:33;100439.13;;;21.30;84.44
18500;BME280;9379;52.134;11.576;2022-09-09T09:38:00;100426.47;;;21.31;83.90
18500;BME280;9379;52.134;11.576;2022-09-09T09:40:28;100433.94;;;21.55;82.74
18500;BME280;9379;52.134;11.576;2022-09-09T09:42:58;100444.38;;;21.32;83.49
18500;BME280;9379;52.134;11.576;2022-09-09T09:45:28;100438.50;;;21.54;83.67
18500;BME280;9379;52.134;11.576;2022-09-09T09:48:01;100439.78;;;21.25;84.61
18500;BME280;9379;52.134;11.576;2022-09-09T09:50:29;100438.06;;;21.58;84.54
18500;BME280;9379;52.134;11.576;2022-09-09T09:53:00;100436.38;;;21.63;82.85
18500;BME280;9379;52.134;11.576;2022-09-09T09:55:29;100437.00;;;21.78;83.30
18500;BME280;9379;52.134;11.576;2022-09-09T09:58:02;100434.25;;;21.85;81.32
18500;BME280;9379;52.134;11.576;2022-09-09T10:00:29;100438.28;;;22.27;81.60
18500;BME280;9379;52.134;11.576;2022-09-09T10:02:56;100434.59;;;22.15;80.38
18500;BME280;9379;52.134;11.576;2022-09-09T10:05:24;100434.13;;;22.25;79.66
18500;BME280;9379;52.134;11.576;2022-09-09T10:08:03;100415.47;;;22.03;80.12
18500;BME280;9379;52.134;11.576;2022-09-09T10:10:45;100432.19;;;21.74;80.66
18500;BME280;9379;52.134;11.576;2022-09-09T10:13:20;100436.34;;;21.90;81.20
18500;BME280;9379;52.134;11.576;2022-09-09T10:15:59;100434.97;;;21.54;82.43
18500;BME280;9379;52.134;11.576;2022-09-09T10:18:44;100425.00;;;21.54;82.59
18500;BME280;9379;52.134;11.576;2022-09-09T10:21:32;100443.06;;;21.67;82.41
18500;BME280;9379;52.134;11.576;2022-09-09T10:27:06;100439.78;;;22.93;79.17
18500;BME280;9379;52.134;11.576;2022-09-09T10:30:04;100423.47;;;22.99;78.38
18500;BME280;9379;52.134;11.576;2022-09-09T10:32:42;100424.84;;;23.09;79.22
18500;BME280;9379;52.134;11.576;2022-09-09T10:35:14;100412.13;;;23.09;79.67
18500;BME280;9379;52.134;11.576;2022-09-09T10:38:02;100406.38;;;22.67;77.05
18500;BME280;9379;52.134;11.576;2022-09-09T10:40:36;100423.63;;;23.29;75.83
18500;BME280;9379;52.134;11.576;2022-09-09T10:43:13;100395.09;;;23.27;76.55
18500;BME280;9379;52.134;11.576;2022-09-09T10:45:52;100400.94;;;23.67;74.78
18500;BME280;9379;52.134;11.576;2022-09-09T10:48:30;100405.41;;;24.58;76.11
18500;BME280;9379;52.134;11.576;2022-09-09T10:51:07;100408.09;;;24.28;74.00
18500;BME280;9379;52.134;11.576;2022-09-09T10:53:48;100403.78;;;23.72;73.10
18500;BME280;9379;52.134;11.576;2022-09-09T10:56:21;100397.19;;;23.00;75.48
18500;BME280;9379;52.134;11.576;2022-09-09T10:58:53;100413.63;;;23.48;75.37
18500;BME280;9379;52.134;11.576;2022-09-09T11:01:26;100387.44;;;23.17;76.10
18500;BME280;9379;52.134;11.576;2022-09-09T11:03:59;100408.94;;;24.29;74.17
18500;BME280;9379;52.134;11.576;2022-09-09T11:06:31;100402.25;;;24.13;75.91
18500;BME280;9379;52.134;11.576;2022-09-09T11:09:02;100401.00;;;23.61;75.90
18500;BME280;9379;52.134;11.576;2022-09-09T11:11:34;100397.00;;;24.30;75.56
18500;BME280;9379;52.134;11.576;2022-09-09T11:14:09;100385.47;;;24.76;75.25
18500;BME280;9379;52.134;11.576;2022-09-09T11:16:41;100377.19;;;23.81;76.96
18500;BME280;9379;52.134;11.576;2022-09-09T11:19:14;100402.91;;;23.78;78.02
18500;BME280;9379;52.134;11.576;2022-09-09T11:21:46;100379.94;;;23.56;77.01
18500;BME280;9379;52.134;11.576;2022-09-09T11:24:18;100399.66;;;23.88;74.46
18500;BME280;9379;52.134;11.576;2022-09-09T11:26:51;100414.59;;;23.97;73.26
18500;BME280;9379;52.134;11.576;2022-09-09T11:32:34;100403.44;;;24.77;71.58
18500;BME280;9379;52.134;11.576;2022-09-09T11:35:20;100415.56;;;23.66;72.57
18500;BME280;9379;52.134;11.576;2022-09-09T11:38:04;100408.31;;;23.78;71.97
18500;BME280;9379;52.134;11.576;2022-09-09T11:40:35;100409.84;;;23.49;70.27
18500;BME280;9379;52.134;11.576;2022-09-09T11:43:05;100393.22;;;24.49;69.29
18500;BME280;9379;52.134;11.576;2022-09-09T11:45:39;100400.50;;;24.79;68.57
18500;BME280;9379;52.134;11.576;2022-09-09T11:48:23;100380.28;;;24.74;68.97
18500;BME280;9379;52.134;11.576;2022-09-09T11:50:58;100371.25;;;25.27;69.50
18500;BME280;9379;52.134;11.576;2022-09-09T11:53:26;100379.63;;;25.38;67.94
18500;BME280;9379;52.134;11.576;2022-09-09T11:59:16;100381.59;;;24.84;69.37
18500;BME280;9379;52.134;11.576;2022-09-09T12:01:49;100383.06;;;24.44;69.78
18500;BME280;9379;52.134;11.576;2022-09-09T12:04:28;100375.22;;;25.83;66.23
18500;BME280;9379;52.134;11.576;2022-09-09T12:06:59;100382.19;;;25.79;65.98
18500;BME280;9379;52.134;11.576;2022-09-09T12:09:31;100392.50;;;25.77;66.65
18500;BME280;9379;52.134;11.576;2022-09-09T12:12:17;100388.81;;;25.83;67.12
18500;BME280;9379;52.134;11.576;2022-09-09T12:17:42;100383.50;;;26.45;61.63
18500;BME280;9379;52.134;11.576;2022-09-09T12:20:13;100389.22;;;24.63;64.13
18500;BME280;9379;52.134;11.576;2022-09-09T12:22:57;100386.56;;;24.15;65.37
18500;BME280;9379;52.134;11.576;2022-09-09T12:25:31;100381.00;;;23.55;67.57
18500;BME280;9379;52.134;11.576;2022-09-09T12:28:04;100380.25;;;24.63;66.62
18500;BME280;9379;52.134;11.576;2022-09-09T12:30:39;100369.28;;;24.69;67.47
18500;BME280;9379;52.134;11.576;2022-09-09T12:33:12;100358.13;;;25.01;66.80
18500;BME280;9379;52.134;11.576;2022-09-09T12:35:43;100355.66;;;24.28;68.47
18500;BME280;9379;52.134;11.576;2022-09-09T12:38:17;100336.81;;;25.33;67.44
18500;BME280;9379;52.134;11.576;2022-09-09T12:40:56;100336.88;;;25.73;65.22
18500;BME280;9379;52.134;11.576;2022-09-09T12:43:26;100339.09;;;25.01;65.67
18500;BME280;9379;52.134;11.576;2022-09-09T12:45:58;100342.00;;;24.99;67.24
18500;BME280;9379;52.134;11.576;2022-09-09T12:48:36;100364.00;;;25.45;67.87
18500;BME280;9379;52.134;11.576;2022-09-09T12:51:18;100334.94;;;25.10;69.01
18500;BME280;9379;52.134;11.576;2022-09-09T12:53:47;100338.00;;;24.90;70.19
18500;BME280;9379;52.134;11.576;2022-09-09T12:56:19;100362.38;;;24.43;68.38
18500;BME280;9379;52.134;11.576;2022-09-09T12:58:55;100338.09;;;24.00;69.86
18500;BME280;9379;52.134;11.576;2022-09-09T13:01:31;100349.53;;;24.21;70.95
18500;BME280;9379;52.134;11.576;2022-09-09T13:03:59;100333.69;;;23.88;71.08
18500;BME280;9379;52.134;11.576;2022-09-09T13:06:37;100359.59;;;24.73;69.44
18500;BME280;9379;52.134;11.576;2022-09-09T13:09:04;100330.25;;;24.52;68.89
18500;BME280;9379;52.134;11.576;2022-09-09T13:11:34;100353.06;;;24.21;70.88
18500;BME280;9379;52.134;11.576;2022-09-09T13:14:12;100350.97;;;24.77;67.65
18500;BME280;9379;52.134;11.576;2022-09-09T13:16:56;100346.34;;;24.24;69.77
18500;BME280;9379;52.134;11.576;2022-09-09T13:19:23;100343.19;;;23.97;68.26
18500;BME280;9379;52.134;11.576;2022-09-09T13:21:54;100326.09;;;23.60;68.02
18500;BME280;9379;52.134;11.576;2022-09-09T13:24:30;100316.13;;;23.72;69.12
18500;BME280;9379;52.134;11.576;2022-09-09T13:26:58;100334.13;;;23.84;69.51
18500;BME280;9379;52.134;11.576;2022-09-09T13:29:27;100330.44;;;23.97;68.05
18500;BME280;9379;52.134;11.576;2022-09-09T13:32:03;100352.69;;;22.83;68.36
18500;BME280;9379;52.134;11.576;2022-09-09T13:34:33;100340.03;;;22.77;70.29
18500;BME280;9379;52.134;11.576;2022-09-09T13:37:01;100356.94;;;22.47;68.37
18500;BME280;9379;52.134;11.576;2022-09-09T13:39:32;100356.66;;;22.55;69.37
18500;BME280;9379;52.134;11.576;2022-09-09T13:42:00;100367.25;;;22.88;68.24
18500;BME280;9379;52.134;11.576;2022-09-09T13:44:30;100343.88;;;22.94;69.94
18500;BME280;9379;52.134;11.576;2022-09-09T13:47:04;100344.41;;;23.03;69.67
18500;BME280;9379;52.134;11.576;2022-09-09T13:49:32;100341.00;;;22.89;69.97
18500;BME280;9379;52.134;11.576;2022-09-09T13:52:08;100351.56;;;23.15;69.99
18500;BME280;9379;52.134;11.576;2022-09-09T13:54:37;100349.94;;;22.89;70.05
18500;BME280;9379;52.134;11.576;2022-09-09T13:57:05;100321.97;;;22.95;70.31
18500;BME280;9379;52.134;11.576;2022-09-09T13:59:40;100328.34;;;23.44;69.78
18500;BME280;9379;52.134;11.576;2022-09-09T14:02:08;100334.53;;;23.51;70.37